Time;durP1;ratioP1;P1;durP2;ratioP2;P2;SDS_P1;SDS_P2;PMS_P1;PMS_P2;Temp;Humidity;BMP_temperature;BMP_pressure;BME280_temperature;BME280_humidity;BME280_pressure;Samples;Min_cycle;Max_cycle;Signal;HPM_P1;HPM_P2
2023/04/07 00:00:38;;;;;;;15.67;10.47;;;6.90;99.90;;;;;;4969445;28;20101;-54
2023/04/07 00:03:06;;;;;;;13.45;10.07;;;6.90;99.90;;;;;;4967548;28;20039;-52
2023/04/07 00:05:32;;;;;;;13.73;10.25;;;7.00;99.90;;;;;;4952822;28;20397;-45
2023/04/07 00:07:57;;;;;;;11.45;9.57;;;6.90;99.90;;;;;;4950986;28;20046;-50
2023/04/07 00:10:24;;;;;;;14.85;10.27;;;6.90;99.90;;;;;;4969927;28;20045;-57
2023/04/07 00:12:50;;;;;;;14.80;10.52;;;6.90;99.90;;;;;;4950814;28;20046;-48
2023/04/07 00:15:15;;;;;;;14.07;10.55;;;6.90;99.90;;;;;;4969917;28;20050;-55
2023/04/07 00:17:50;;;;;;;13.82;9.88;;;6.90;99.90;;;;;;4969133;28;20046;-47
2023/04/07 00:20:16;;;;;;;10.18;8.63;;;6.80;99.90;;;;;;4966537;28;20062;-54
2023/04/07 00:22:42;;;;;;;14.13;8.85;;;6.80;99.90;;;;;;4969212;28;20050;-60
2023/04/07 00:25:10;;;;;;;12.15;8.60;;;6.80;99.90;;;;;;4967881;28;20038;-47
2023/04/07 00:27:36;;;;;;;12.85;9.15;;;6.90;99.90;;;;;;4952117;28;20074;-52
2023/04/07 00:30:03;;;;;;;12.68;9.82;;;6.80;99.90;;;;;;4950683;28;20086;-46
2023/04/07 00:32:28;;;;;;;16.10;8.85;;;6.80;99.90;;;;;;4969421;28;20090;-58
2023/04/07 00:34:57;;;;;;;13.73;9.98;;;6.90;99.90;;;;;;4968858;28;20133;-47
2023/04/07 00:37:24;;;;;;;12.73;9.48;;;6.80;99.90;;;;;;4968520;28;20810;-46
2023/04/07 00:39:51;;;;;;;11.43;8.80;;;6.80;99.90;;;;;;4952316;28;20082;-47
2023/04/07 00:42:17;;;;;;;12.80;9.60;;;6.80;99.90;;;;;;4968442;28;20378;-53
2023/04/07 00:44:43;;;;;;;12.60;10.00;;;6.80;99.90;;;;;;4951524;28;20057;-51
2023/04/07 00:47:09;;;;;;;10.68;8.55;;;6.80;99.90;;;;;;4950212;28;20062;-52
2023/04/07 00:49:37;;;;;;;10.65;9.00;;;6.80;99.90;;;;;;4969104;28;20055;-49
2023/04/07 00:52:05;;;;;;;9.88;8.02;;;6.80;99.90;;;;;;4950844;28;20413;-47
2023/04/07 00:54:31;;;;;;;11.63;8.25;;;6.80;99.90;;;;;;4968429;28;20078;-49
2023/04/07 00:56:57;;;;;;;11.55;8.38;;;6.80;99.90;;;;;;4969226;28;20584;-44
2023/04/07 00:59:24;;;;;;;10.15;8.25;;;6.80;99.90;;;;;;4950440;28;20058;-57
2023/04/07 01:02:22;;;;;;;10.02;8.38;;;6.80;99.90;;;;;;4968392;28;20051;-54
2023/04/07 01:05:02;;;;;;;11.75;7.82;;;6.80;99.90;;;;;;4865189;28;20050;-48
2023/04/07 01:07:39;;;;;;;10.27;7.55;;;6.80;99.90;;;;;;4968006;28;20516;-52
2023/04/07 01:10:07;;;;;;;10.52;7.53;;;6.80;99.90;;;;;;4969393;28;20046;-56
2023/04/07 01:12:50;;;;;;;11.55;8.77;;;6.80;99.90;;;;;;4966836;28;20093;-53
2023/04/07 01:15:22;;;;;;;10.18;7.70;;;6.80;99.90;;;;;;4969389;28;20042;-52
2023/04/07 01:18:06;;;;;;;11.30;7.47;;;6.80;99.90;;;;;;4966972;28;20046;-46
2023/04/07 01:20:32;;;;;;;9.27;7.25;;;6.80;99.90;;;;;;4968296;28;20102;-55
2023/04/07 01:23:03;;;;;;;10.73;7.40;;;6.80;99.90;;;;;;4969024;28;20038;-47
2023/04/07 01:26:05;;;;;;;10.27;7.93;;;6.80;99.90;;;;;;4967020;28;20114;-46
2023/04/07 01:28:48;;;;;;;11.07;7.50;;;6.70;99.90;;;;;;4953147;28;20062;-55
2023/04/07 01:31:15;;;;;;;8.63;7.07;;;6.70;99.90;;;;;;4951116;28;20059;-49
2023/04/07 01:33:44;;;;;;;8.95;7.10;;;6.70;99.90;;;;;;4967930;28;20126;-50
2023/04/07 01:36:11;;;;;;;10.43;7.82;;;6.70;99.90;;;;;;4969064;28;20077;-47
2023/04/07 01:38:38;;;;;;;9.52;6.95;;;6.70;99.90;;;;;;4966558;28;20443;-56
2023/04/07 01:41:07;;;;;;;12.43;7.30;;;6.70;99.90;;;;;;4969370;28;20061;-54
2023/04/07 01:43:35;;;;;;;10.07;7.68;;;6.60;99.90;;;;;;4949691;28;20122;-53
2023/04/07 01:46:02;;;;;;;9.88;7.18;;;6.70;99.90;;;;;;4968813;28;20058;-51
2023/04/07 01:48:29;;;;;;;8.98;7.20;;;6.60;99.90;;;;;;4968118;28;20094;-47
2023/04/07 01:50:59;;;;;;;9.55;7.03;;;6.70;99.90;;;;;;4951103;28;20531;-47
2023/04/07 01:53:26;;;;;;;10.40;7.45;;;6.70;99.90;;;;;;4968821;28;20043;-54
2023/04/07 01:55:53;;;;;;;8.52;6.80;;;6.70;99.90;;;;;;4966557;28;20497;-49
2023/04/07 01:58:19;;;;;;;10.05;7.70;;;6.70;99.90;;;;;;4951344;28;20057;-48
2023/04/07 02:00:45;;;;;;;11.25;7.85;;;6.70;99.90;;;;;;4967840;28;20054;-53
2023/04/07 02:03:19;;;;;;;8.75;7.07;;;6.80;99.90;;;;;;4967122;28;20054;-56
2023/04/07 02:05:48;;;;;;;8.90;7.00;;;6.80;99.90;;;;;;4971012;28;20328;-46
2023/04/07 02:08:17;;;;;;;9.10;6.78;;;6.80;99.90;;;;;;4970360;28;20591;-56
2023/04/07 02:10:45;;;;;;;8.52;6.78;;;6.90;99.90;;;;;;4971976;28;20058;-57
2023/04/07 02:13:15;;;;;;;11.00;7.45;;;6.90;99.90;;;;;;4970577;28;20078;-56
2023/04/07 02:15:44;;;;;;;10.25;8.07;;;6.90;99.90;;;;;;4971924;28;20158;-51
2023/04/07 02:18:12;;;;;;;9.70;7.47;;;6.90;99.90;;;;;;4970579;28;20049;-58
2023/04/07 02:20:40;;;;;;;11.93;8.30;;;6.90;99.90;;;;;;4971554;28;20038;-47
2023/04/07 02:23:09;;;;;;;9.73;8.05;;;7.00;99.90;;;;;;4953888;28;20051;-49
2023/04/07 02:25:37;;;;;;;8.77;7.60;;;6.90;99.90;;;;;;4953545;28;20493;-64
2023/04/07 02:28:03;;;;;;;10.18;7.78;;;6.90;99.90;;;;;;4954951;28;20569;-54
2023/04/07 02:30:30;;;;;;;11.07;7.78;;;7.00;99.90;;;;;;4970423;28;20069;-52
2023/04/07 02:32:56;;;;;;;10.10;7.32;;;6.90;99.90;;;;;;4971189;28;20566;-60
2023/04/07 02:35:22;;;;;;;9.57;7.63;;;7.00;99.90;;;;;;4952837;28;20564;-48
2023/04/07 02:37:48;;;;;;;8.45;7.35;;;7.00;99.90;;;;;;4971181;28;20098;-63
2023/04/07 02:40:15;;;;;;;8.77;7.40;;;7.00;99.90;;;;;;4937354;28;20093;-51
2023/04/07 02:42:41;;;;;;;9.32;7.68;;;7.00;99.90;;;;;;4970095;28;20066;-47
2023/04/07 02:45:08;;;;;;;11.88;8.00;;;7.00;99.90;;;;;;4953684;28;20062;-45
2023/04/07 02:47:35;;;;;;;10.32;8.57;;;7.00;99.90;;;;;;4969958;28;20524;-47
2023/04/07 02:50:01;;;;;;;11.02;7.38;;;7.00;99.90;;;;;;4971336;28;20038;-54
2023/04/07 02:52:27;;;;;;;8.55;7.60;;;7.00;99.90;;;;;;4969784;28;20134;-50
2023/04/07 02:54:53;;;;;;;10.40;8.75;;;7.00;99.90;;;;;;4970735;28;20689;-56
2023/04/07 02:57:19;;;;;;;8.80;6.68;;;7.00;99.90;;;;;;4970230;28;20042;-51
2023/04/07 02:59:44;;;;;;;8.02;7.20;;;7.00;99.90;;;;;;4971044;28;20043;-49
2023/04/07 03:02:11;;;;;;;9.73;7.40;;;7.00;99.90;;;;;;4970841;28;20026;-46
2023/04/07 03:04:37;;;;;;;9.43;7.63;;;7.00;99.90;;;;;;4970361;28;20046;-52
2023/04/07 03:07:03;;;;;;;8.73;6.40;;;7.00;99.90;;;;;;4971078;28;20432;-50
2023/04/07 03:09:28;;;;;;;10.15;8.07;;;7.00;99.90;;;;;;4969705;28;20042;-51
2023/04/07 03:11:54;;;;;;;9.75;7.57;;;7.00;99.90;;;;;;4953431;28;20055;-53
2023/04/07 03:14:20;;;;;;;9.00;6.90;;;7.00;99.90;;;;;;4969083;28;20051;-49
2023/04/07 03:16:46;;;;;;;10.45;7.38;;;7.00;99.90;;;;;;4970575;28;20054;-52
2023/04/07 03:19:12;;;;;;;10.15;8.00;;;7.00;99.90;;;;;;4952461;28;20098;-47
2023/04/07 03:21:38;;;;;;;9.00;7.05;;;7.10;99.90;;;;;;4970707;28;20058;-47
2023/04/07 03:24:07;;;;;;;8.95;7.53;;;7.10;99.90;;;;;;4969274;28;20073;-47
2023/04/07 03:26:33;;;;;;;10.70;8.02;;;7.00;99.90;;;;;;4967593;28;20039;-52
2023/04/07 03:28:58;;;;;;;10.25;8.07;;;7.10;99.90;;;;;;4970778;28;20122;-48
2023/04/07 03:31:24;;;;;;;10.93;7.95;;;7.00;99.90;;;;;;4969260;28;20035;-51
2023/04/07 03:33:50;;;;;;;11.75;7.90;;;7.00;99.90;;;;;;4970967;28;20109;-57
2023/04/07 03:36:19;;;;;;;11.18;8.15;;;7.00;99.90;;;;;;4951709;28;20051;-49
2023/04/07 03:38:46;;;;;;;10.63;7.53;;;7.00;99.90;;;;;;4970663;28;20039;-57
2023/04/07 03:41:12;;;;;;;8.32;6.47;;;7.00;99.90;;;;;;4970081;28;20043;-44
2023/04/07 03:43:38;;;;;;;12.13;8.50;;;7.00;99.90;;;;;;4969842;28;20504;-47
2023/04/07 03:46:04;;;;;;;10.23;7.95;;;6.90;99.90;;;;;;4952668;28;20061;-51
2023/04/07 03:48:30;;;;;;;12.43;8.10;;;7.00;99.90;;;;;;4935767;28;20043;-54
2023/04/07 03:50:55;;;;;;;13.10;7.70;;;7.00;99.90;;;;;;4970105;28;20047;-49
2023/04/07 03:53:21;;;;;;;11.18;8.50;;;6.90;99.90;;;;;;4935327;28;20047;-48
2023/04/07 03:55:47;;;;;;;10.90;8.68;;;7.00;99.90;;;;;;4970286;28;20053;-54
2023/04/07 03:58:12;;;;;;;10.65;8.85;;;6.90;99.90;;;;;;4969397;28;20129;-50
2023/04/07 04:00:38;;;;;;;14.48;9.38;;;7.00;99.90;;;;;;4969716;28;20397;-56
2023/04/07 04:03:04;;;;;;;15.00;9.05;;;6.90;99.90;;;;;;4952873;28;20438;-49
2023/04/07 04:05:30;;;;;;;9.63;8.00;;;6.90;99.90;;;;;;4968487;28;20544;-51
2023/04/07 04:07:56;;;;;;;13.35;9.07;;;6.90;99.90;;;;;;4969970;28;20066;-54
2023/04/07 04:10:22;;;;;;;12.23;8.00;;;6.90;99.90;;;;;;4967792;28;20047;-59
2023/04/07 04:12:48;;;;;;;10.57;7.60;;;6.90;99.90;;;;;;4969679;28;20051;-59
2023/04/07 04:15:15;;;;;;;14.30;9.15;;;6.90;99.90;;;;;;4967721;28;20078;-52
2023/04/07 04:17:41;;;;;;;13.10;10.40;;;6.90;99.90;;;;;;4969891;28;20108;-49
2023/04/07 04:20:07;;;;;;;12.43;9.38;;;6.90;99.90;;;;;;4935996;28;20039;-45
2023/04/07 04:22:36;;;;;;;12.88;9.13;;;6.90;99.90;;;;;;4969147;28;20047;-51
2023/04/07 04:25:03;;;;;;;14.60;9.13;;;6.90;99.90;;;;;;4968713;28;20057;-49
2023/04/07 04:27:29;;;;;;;10.40;8.98;;;6.90;99.90;;;;;;4968236;28;20035;-47
2023/04/07 04:29:55;;;;;;;11.98;8.45;;;6.90;99.90;;;;;;4951235;28;20130;-51
2023/04/07 04:32:20;;;;;;;11.93;9.93;;;6.80;99.90;;;;;;4951238;28;20062;-52
2023/04/07 04:34:46;;;;;;;11.63;9.68;;;6.90;99.90;;;;;;4969796;28;20039;-53
2023/04/07 04:37:12;;;;;;;26.05;14.00;;;6.90;99.90;;;;;;4950592;28;20508;-47
2023/04/07 04:39:37;;;;;;;19.75;12.20;;;6.90;99.90;;;;;;4969075;28;20405;-49
2023/04/07 04:42:04;;;;;;;14.85;10.73;;;6.90;99.90;;;;;;4969102;28;20043;-55
2023/04/07 04:44:30;;;;;;;14.82;11.60;;;6.90;99.90;;;;;;4950897;28;20058;-63
2023/04/07 04:46:56;;;;;;;14.80;9.98;;;6.90;99.90;;;;;;4950999;28;20058;-49
2023/04/07 04:49:22;;;;;;;15.25;11.20;;;6.90;99.90;;;;;;4967871;28;20042;-55
2023/04/07 04:51:47;;;;;;;13.68;10.60;;;6.90;99.90;;;;;;4969414;28;20047;-55
2023/04/07 04:54:13;;;;;;;13.32;9.95;;;6.90;99.90;;;;;;4966258;28;20050;-47
2023/04/07 04:56:39;;;;;;;17.98;11.70;;;7.00;99.90;;;;;;4951578;28;20141;-50
2023/04/07 04:59:05;;;;;;;18.95;9.55;;;7.00;99.90;;;;;;4951265;28;20051;-47
2023/04/07 05:01:31;;;;;;;16.45;10.77;;;7.00;99.90;;;;;;4951286;28;20046;-58
2023/04/07 05:03:56;;;;;;;12.60;11.20;;;7.00;99.90;;;;;;4969186;28;20588;-50
2023/04/07 05:06:22;;;;;;;14.15;9.15;;;7.00;99.90;;;;;;4933867;28;20053;-57
2023/04/07 05:08:48;;;;;;;17.40;11.10;;;7.00;99.90;;;;;;4951703;28;20046;-53
2023/04/07 05:11:14;;;;;;;15.73;11.55;;;6.90;99.90;;;;;;4967103;28;20523;-57
2023/04/07 05:13:40;;;;;;;16.05;11.10;;;6.90;99.90;;;;;;4968519;28;20125;-51
2023/04/07 05:16:06;;;;;;;13.32;10.80;;;6.90;99.90;;;;;;4966846;28;20126;-54
2023/04/07 05:18:31;;;;;;;15.82;10.65;;;7.00;99.90;;;;;;4967142;28;20058;-51
2023/04/07 05:20:57;;;;;;;15.70;10.65;;;7.00;99.90;;;;;;4968731;28;20054;-58
2023/04/07 05:23:23;;;;;;;14.57;11.05;;;7.00;99.90;;;;;;4967816;28;20049;-60
2023/04/07 05:25:49;;;;;;;17.15;11.50;;;7.00;99.90;;;;;;4968924;28;20448;-53
2023/04/07 05:28:15;;;;;;;16.67;10.95;;;7.00;99.90;;;;;;4967111;28;20042;-48
2023/04/07 05:30:40;;;;;;;15.35;10.55;;;7.00;99.90;;;;;;4969110;28;20157;-48
2023/04/07 05:33:06;;;;;;;16.80;12.02;;;7.00;99.90;;;;;;4949804;28;20055;-52
2023/04/07 05:35:32;;;;;;;17.30;11.93;;;7.00;99.90;;;;;;4969374;28;20057;-54
2023/04/07 05:37:58;;;;;;;14.10;10.43;;;7.00;99.90;;;;;;4970105;28;20093;-52
2023/04/07 05:40:24;;;;;;;17.90;11.80;;;7.00;99.90;;;;;;4971623;28;20072;-56
2023/04/07 05:42:50;;;;;;;14.27;10.02;;;7.00;99.90;;;;;;4972825;28;20389;-52
2023/04/07 05:45:15;;;;;;;16.17;11.63;;;7.10;99.90;;;;;;4970585;28;20046;-52
2023/04/07 05:47:42;;;;;;;15.98;11.80;;;7.10;99.90;;;;;;4972423;28;20054;-50
2023/04/07 05:50:08;;;;;;;21.25;12.75;;;7.10;99.90;;;;;;4970617;28;20101;-48
2023/04/07 05:52:34;;;;;;;17.98;12.95;;;7.10;99.90;;;;;;4971258;28;20054;-48
2023/04/07 05:54:59;;;;;;;17.80;12.70;;;7.10;99.90;;;;;;4954364;28;20046;-47
2023/04/07 05:57:26;;;;;;;19.92;12.82;;;7.20;99.90;;;;;;4971157;28;20432;-58
2023/04/07 05:59:55;;;;;;;19.98;13.52;;;7.20;99.90;;;;;;4972500;28;20049;-48
2023/04/07 06:02:21;;;;;;;18.15;12.35;;;7.20;99.90;;;;;;4970138;28;20046;-48
2023/04/07 06:04:46;;;;;;;21.50;12.95;;;7.20;99.90;;;;;;4972391;28;20035;-58
2023/04/07 06:07:12;;;;;;;19.00;12.70;;;7.20;99.90;;;;;;4968693;28;20047;-53
2023/04/07 06:09:38;;;;;;;14.18;12.23;;;7.20;99.90;;;;;;4954684;28;20063;-48
2023/04/07 06:12:05;;;;;;;19.25;13.35;;;7.20;99.90;;;;;;4970299;28;20050;-63
2023/04/07 06:14:31;;;;;;;19.45;13.50;;;7.20;99.90;;;;;;4972208;28;20062;-54
2023/04/07 06:16:57;;;;;;;18.60;13.25;;;7.20;99.90;;;;;;4970312;28;20051;-51
2023/04/07 06:19:22;;;;;;;22.95;13.18;;;7.20;99.90;;;;;;4952991;28;20062;-50
2023/04/07 06:21:48;;;;;;;20.40;15.23;;;7.20;99.90;;;;;;4962298;28;20428;-53
2023/04/07 06:24:14;;;;;;;20.42;14.63;;;7.30;99.90;;;;;;4970054;28;20082;-48
2023/04/07 06:26:40;;;;;;;20.80;14.95;;;7.30;99.90;;;;;;4971945;28;20051;-51
2023/04/07 06:29:06;;;;;;;24.20;16.67;;;7.30;99.90;;;;;;4970065;28;20046;-64
2023/04/07 06:31:32;;;;;;;23.70;16.20;;;7.30;99.90;;;;;;4954740;28;20405;-52
2023/04/07 06:33:58;;;;;;;25.83;16.23;;;7.30;99.90;;;;;;4970877;28;20076;-48
2023/04/07 06:36:23;;;;;;;23.45;16.95;;;7.30;99.90;;;;;;4970136;28;20134;-55
2023/04/07 06:38:50;;;;;;;21.50;15.90;;;7.30;99.90;;;;;;4971543;28;20054;-47
2023/04/07 06:41:16;;;;;;;23.02;16.02;;;7.30;99.90;;;;;;4969765;28;20069;-52
2023/04/07 06:43:46;;;;;;;25.02;16.70;;;7.30;99.90;;;;;;4972349;28;20039;-48
2023/04/07 06:46:12;;;;;;;;;;;7.30;99.90;;;;;;4970002;28;20065;-46
2023/04/07 06:48:38;;;;;;;20.98;15.52;;;7.20;99.90;;;;;;4971376;28;20016;-53
2023/04/07 06:51:04;;;;;;;20.30;14.55;;;7.10;99.90;;;;;;4968619;28;20081;-51
2023/04/07 06:53:30;;;;;;;23.65;14.80;;;7.20;99.90;;;;;;4970960;28;20050;-49
2023/04/07 06:56:06;;;;;;;17.83;14.10;;;7.00;99.90;;;;;;4953626;28;20059;-47
2023/04/07 06:58:33;;;;;;;25.08;14.15;;;7.00;99.90;;;;;;4952648;28;20079;-49
2023/04/07 07:01:00;;;;;;;22.58;14.27;;;7.00;99.90;;;;;;4954056;28;20090;-58
2023/04/07 07:03:26;;;;;;;21.38;13.82;;;7.00;99.90;;;;;;4969269;28;20046;-48
2023/04/07 07:05:55;;;;;;;20.75;14.05;;;7.00;99.90;;;;;;4971414;28;20129;-61
2023/04/07 07:08:21;;;;;;;19.23;14.07;;;7.10;99.60;;;;;;4969352;28;20555;-48
2023/04/07 07:10:47;;;;;;;20.70;13.60;;;7.10;99.90;;;;;;4953777;28;20466;-59
2023/04/07 07:13:13;;;;;;;17.02;13.40;;;7.10;96.50;;;;;;4968932;28;20094;-50
2023/04/07 07:15:38;;;;;;;20.25;14.23;;;7.10;96.70;;;;;;4952752;28;20528;-53
2023/04/07 07:18:04;;;;;;;17.05;12.68;;;7.20;96.50;;;;;;4954386;28;20066;-46
2023/04/07 07:20:30;;;;;;;20.95;13.15;;;7.30;98.20;;;;;;4969118;28;20531;-49
2023/04/07 07:22:57;;;;;;;17.38;12.77;;;7.40;98.90;;;;;;4953215;28;20480;-64
2023/04/07 07:25:25;;;;;;;17.80;12.23;;;7.50;95.90;;;;;;4952051;28;20441;-55
2023/04/07 07:27:52;;;;;;;20.52;13.07;;;7.60;93.50;;;;;;4971106;28;20102;-54
2023/04/07 07:30:21;;;;;;;18.05;13.25;;;7.60;91.90;;;;;;4969540;28;20082;-45
2023/04/07 07:32:47;;;;;;;17.27;12.77;;;7.70;93.30;;;;;;4970313;28;20404;-50
2023/04/07 07:35:14;;;;;;;20.92;12.60;;;7.80;95.10;;;;;;4953443;28;20063;-51
2023/04/07 07:37:40;;;;;;;19.67;12.57;;;8.00;93.00;;;;;;4952422;28;20039;-49
2023/04/07 07:40:06;;;;;;;18.88;13.20;;;7.90;89.10;;;;;;4970708;28;20043;-53
2023/04/07 07:42:32;;;;;;;18.30;13.40;;;8.00;90.00;;;;;;4951124;28;20039;-51
2023/04/07 07:44:58;;;;;;;18.13;11.77;;;8.10;91.40;;;;;;4970482;28;20047;-57
2023/04/07 07:47:25;;;;;;;22.50;12.90;;;8.30;91.80;;;;;;4968649;28;20063;-46
2023/04/07 07:49:50;;;;;;;19.58;11.13;;;8.40;90.90;;;;;;4970487;28;20038;-53
2023/04/07 07:52:16;;;;;;;14.45;10.43;;;8.50;88.70;;;;;;4952249;28;20070;-50
2023/04/07 07:54:42;;;;;;;19.25;10.25;;;8.50;83.50;;;;;;4969216;28;20635;-49
2023/04/07 07:57:08;;;;;;;16.60;10.60;;;8.60;85.70;;;;;;4953476;28;20052;-57
2023/04/07 07:59:33;;;;;;;14.48;10.85;;;8.70;79.80;;;;;;4967609;28;20054;-55
2023/04/07 08:01:59;;;;;;;21.35;11.40;;;8.70;74.40;;;;;;4970172;28;20047;-55
2023/04/07 08:04:25;;;;;;;17.25;10.63;;;8.70;77.10;;;;;;4968100;28;20061;-57
2023/04/07 08:06:52;;;;;;;14.20;10.40;;;8.80;83.10;;;;;;4970023;28;20478;-56
2023/04/07 08:09:18;;;;;;;21.58;10.73;;;8.90;82.70;;;;;;4969075;28;20456;-63
2023/04/07 08:11:47;;;;;;;16.17;11.25;;;9.00;76.10;;;;;;4969476;28;20483;-57
2023/04/07 08:14:13;;;;;;;16.55;9.75;;;9.10;80.20;;;;;;4952394;28;20050;-55
2023/04/07 08:16:39;;;;;;;12.32;10.20;;;9.20;71.80;;;;;;4950667;28;20070;-45
2023/04/07 08:19:05;;;;;;;14.25;9.60;;;9.10;69.80;;;;;;4969984;28;20046;-47
2023/04/07 08:21:31;;;;;;;13.27;8.43;;;9.00;71.20;;;;;;4967832;28;20134;-57
2023/04/07 08:23:57;;;;;;;17.92;10.80;;;9.10;70.30;;;;;;4970050;28;20405;-56
2023/04/07 08:26:22;;;;;;;14.18;10.43;;;9.10;72.00;;;;;;4967624;28;20035;-49
2023/04/07 08:28:52;;;;;;;14.10;10.48;;;9.20;71.40;;;;;;4969289;28;20057;-48
2023/04/07 08:31:18;;;;;;;15.10;9.33;;;9.20;68.50;;;;;;4969327;28;20045;-52
2023/04/07 08:33:45;;;;;;;12.35;9.02;;;9.10;61.70;;;;;;4950640;28;20093;-57
2023/04/07 08:36:11;;;;;;;14.25;10.27;;;9.00;66.70;;;;;;4968535;28;20164;-56
2023/04/07 08:38:37;;;;;;;13.23;9.18;;;9.00;67.80;;;;;;4967787;28;20485;-60
2023/04/07 08:41:17;;;;;;;15.65;9.57;;;9.10;67.30;;;;;;4969569;28;20039;-56
2023/04/07 08:43:45;;;;;;;12.27;9.70;;;9.10;67.10;;;;;;4967115;28;20053;-46
2023/04/07 08:46:13;;;;;;;15.40;9.68;;;9.30;72.70;;;;;;4967407;28;20469;-63
2023/04/07 08:48:43;;;;;;;12.98;9.40;;;9.40;68.50;;;;;;4965675;28;20039;-48
2023/04/07 08:51:11;;;;;;;10.45;7.40;;;9.60;68.60;;;;;;4967565;28;20097;-60
2023/04/07 08:53:42;;;;;;;10.90;8.27;;;9.90;68.00;;;;;;4967931;28;20082;-52
2023/04/07 08:56:10;;;;;;;12.40;9.73;;;10.00;61.50;;;;;;4967356;28;20035;-49
2023/04/07 08:58:36;;;;;;;11.25;8.63;;;10.20;67.60;;;;;;4968171;28;20559;-47
2023/04/07 09:01:05;;;;;;;12.25;8.38;;;10.20;62.90;;;;;;4949591;28;20042;-48
2023/04/07 09:03:33;;;;;;;10.85;8.32;;;10.20;62.20;;;;;;4964019;28;20043;-51
2023/04/07 09:06:01;;;;;;;8.80;6.03;;;10.30;61.30;;;;;;4968524;28;20113;-48
2023/04/07 09:08:27;;;;;;;13.00;9.32;;;10.40;62.20;;;;;;4949429;28;20047;-51
2023/04/07 09:10:55;;;;;;;10.98;9.18;;;10.60;62.20;;;;;;4968350;28;20041;-55
2023/04/07 09:13:21;;;;;;;13.55;9.32;;;10.70;54.50;;;;;;4965604;28;20054;-60
2023/04/07 09:15:46;;;;;;;11.38;8.02;;;10.80;55.60;;;;;;4968803;28;20043;-52
2023/04/07 09:18:13;;;;;;;14.40;9.43;;;11.00;55.40;;;;;;4967232;28;20050;-51
2023/04/07 09:21:12;;;;;;;11.13;8.77;;;11.10;54.30;;;;;;4951305;28;20055;-53
2023/04/07 09:23:39;;;;;;;17.15;8.55;;;11.40;55.70;;;;;;4930910;28;20509;-53
2023/04/07 09:26:26;;;;;;;12.68;8.43;;;11.30;51.20;;;;;;4966598;28;20055;-60
2023/04/07 09:28:58;;;;;;;16.10;7.97;;;11.50;54.40;;;;;;4967847;28;20070;-47
2023/04/07 09:31:51;;;;;;;10.23;6.95;;;11.50;48.30;;;;;;4967619;28;20042;-46
2023/04/07 09:34:31;;;;;;;8.52;6.95;;;11.40;47.50;;;;;;4966038;28;20035;-48
2023/04/07 09:36:58;;;;;;;5.00;3.58;;;11.50;50.10;;;;;;4967710;28;20518;-53
2023/04/07 09:39:24;;;;;;;9.35;7.60;;;11.60;47.10;;;;;;4967348;28;20038;-59
2023/04/07 09:41:51;;;;;;;7.25;6.35;;;11.60;45.90;;;;;;4942084;28;20175;-53
2023/04/07 09:44:20;;;;;;;6.30;4.95;;;11.70;45.80;;;;;;4950083;28;20046;-50
2023/04/07 09:46:51;;;;;;;6.50;5.90;;;11.80;43.90;;;;;;4966052;28;20065;-48
2023/04/07 09:49:19;;;;;;;9.15;6.65;;;11.70;43.80;;;;;;4968614;28;20054;-53
2023/04/07 09:51:57;;;;;;;7.40;6.70;;;11.70;45.10;;;;;;4967201;28;20042;-55
2023/04/07 09:54:36;;;;;;;12.13;6.88;;;11.80;43.70;;;;;;4968285;28;20042;-55
2023/04/07 09:57:06;;;;;;;11.38;7.88;;;11.70;39.50;;;;;;4966228;28;20472;-51
2023/04/07 09:59:35;;;;;;;6.60;5.07;;;11.90;46.30;;;;;;4967990;28;20047;-56
2023/04/07 10:02:01;;;;;;;9.80;6.60;;;12.10;38.50;;;;;;4965820;28;20109;-48
2023/04/07 10:04:30;;;;;;;7.85;6.43;;;12.00;37.60;;;;;;4968082;28;20077;-50
2023/04/07 10:06:57;;;;;;;8.25;7.00;;;11.90;38.90;;;;;;4967887;28;20397;-46
2023/04/07 10:09:27;;;;;;;7.97;7.05;;;11.70;38.00;;;;;;4967093;28;20118;-58
2023/04/07 10:11:55;;;;;;;8.10;6.97;;;11.70;38.00;;;;;;4967949;28;20563;-49
2023/04/07 10:14:25;;;;;;;12.65;7.22;;;11.80;38.40;;;;;;4949489;28;20058;-49
2023/04/07 10:16:52;;;;;;;8.05;6.63;;;12.10;42.50;;;;;;4967895;28;20085;-57
2023/04/07 10:19:18;;;;;;;5.65;4.97;;;12.30;39.30;;;;;;4967968;28;20134;-44
2023/04/07 10:21:45;;;;;;;10.10;7.18;;;12.50;34.50;;;;;;4968017;28;20050;-59
2023/04/07 10:24:36;;;;;;;9.57;7.35;;;12.40;36.90;;;;;;4971995;28;20437;-45
2023/04/07 10:27:10;;;;;;;9.13;6.63;;;12.40;29.90;;;;;;4969806;28;20409;-50
2023/04/07 10:29:46;;;;;;;8.25;6.90;;;12.30;30.00;;;;;;4968859;28;20836;-58
2023/04/07 10:32:12;;;;;;;8.88;7.22;;;12.40;29.40;;;;;;4970605;28;20504;-44
2023/04/07 10:34:49;;;;;;;10.60;8.00;;;12.40;29.20;;;;;;4970485;28;20101;-54
2023/04/07 10:37:19;;;;;;;10.20;7.80;;;12.60;30.60;;;;;;4970539;28;20061;-53
2023/04/07 10:39:46;;;;;;;;;;;12.80;29.70;;;;;;4970561;28;20054;-52
2023/04/07 10:42:37;;;;;;;9.43;8.02;;;13.00;31.80;;;;;;4971290;28;19980;-57
2023/04/07 10:45:12;;;;;;;11.57;8.00;;;13.10;28.00;;;;;;4969221;28;20126;-44
2023/04/07 10:47:59;;;;;;;10.23;6.95;;;13.20;26.50;;;;;;4969969;28;20102;-56
2023/04/07 10:50:25;;;;;;;12.23;9.02;;;13.20;28.70;;;;;;4963478;28;20054;-55
2023/04/07 10:53:11;;;;;;;11.05;8.05;;;13.20;24.70;;;;;;4969226;28;20404;-46
2023/04/07 10:55:37;;;;;;;9.35;7.65;;;13.10;18.60;;;;;;4970732;28;20050;-51
2023/04/07 10:58:28;;;;;;;9.68;7.53;;;13.00;19.70;;;;;;4969625;28;20408;-45
2023/04/07 11:01:05;;;;;;;9.15;8.05;;;13.00;17.40;;;;;;4968694;28;20047;-55
2023/04/07 11:03:33;;;;;;;9.93;7.90;;;13.10;21.70;;;;;;4970232;28;20078;-54
2023/04/07 11:06:04;;;;;;;11.40;6.55;;;13.10;17.00;;;;;;4969081;28;20831;-53
2023/04/07 11:08:46;;;;;;;15.77;8.55;;;13.00;15.60;;;;;;4969281;28;20078;-56
2023/04/07 11:11:15;;;;;;;9.00;7.72;;;12.90;11.50;;;;;;4969617;28;20045;-47
2023/04/07 11:13:46;;;;;;;11.77;7.70;;;13.00;13.00;;;;;;4969306;28;20492;-59
2023/04/07 11:16:13;;;;;;;12.50;8.02;;;13.10;12.70;;;;;;4953715;28;20859;-47
2023/04/07 11:18:40;;;;;;;12.38;8.23;;;13.30;14.80;;;;;;4950989;28;20507;-51
2023/04/07 11:21:06;;;;;;;9.00;7.10;;;13.40;13.80;;;;;;4950087;28;20050;-51
2023/04/07 11:23:40;;;;;;;9.55;7.43;;;13.60;12.40;;;;;;4951440;28;20172;-55
2023/04/07 11:26:08;;;;;;;10.70;6.45;;;13.60;9.90;;;;;;4970071;28;20117;-56
2023/04/07 11:28:44;;;;;;;10.15;7.43;;;13.60;10.60;;;;;;4969614;28;20125;-49
2023/04/07 11:31:11;;;;;;;9.07;8.13;;;13.60;12.10;;;;;;4968252;28;20057;-61
2023/04/07 11:33:40;;;;;;;10.93;6.57;;;13.70;11.20;;;;;;4966268;28;20457;-48
2023/04/07 11:36:06;;;;;;;8.20;7.32;;;13.80;11.20;;;;;;4968324;28;20829;-52
2023/04/07 11:38:37;;;;;;;10.05;7.50;;;13.80;10.70;;;;;;4970065;28;20074;-51
2023/04/07 11:41:10;;;;;;;18.05;7.07;;;13.90;12.00;;;;;;4968379;28;20050;-44
2023/04/07 11:43:36;;;;;;;9.20;7.45;;;14.10;10.90;;;;;;4970201;28;20126;-55
2023/04/07 11:46:10;;;;;;;11.88;8.35;;;14.00;7.10;;;;;;4969499;28;20054;-47
2023/04/07 11:48:37;;;;;;;13.63;7.75;;;13.80;11.90;;;;;;4951007;28;20058;-52
2023/04/07 11:51:03;;;;;;;8.82;6.55;;;13.70;10.90;;;;;;4969840;28;20505;-60
2023/04/07 11:53:39;;;;;;;9.75;7.40;;;13.50;8.70;;;;;;4951214;28;20058;-54
2023/04/07 11:56:15;;;;;;;9.25;7.78;;;13.60;11.00;;;;;;4969895;28;20042;-50
2023/04/07 11:58:48;;;;;;;9.75;7.72;;;13.60;8.20;;;;;;4951054;28;20058;-44
2023/04/07 12:01:14;;;;;;;10.05;8.45;;;13.90;11.50;;;;;;4951497;28;20051;-54
2023/04/07 12:03:57;;;;;;;10.40;7.88;;;13.80;4.70;;;;;;4970021;28;20061;-55
2023/04/07 12:06:33;;;;;;;4.78;4.03;;;13.90;6.40;;;;;;4949447;28;20055;-45
2023/04/07 12:09:04;;;;;;;12.02;8.10;;;13.90;3.10;;;;;;4973231;28;20039;-45
2023/04/07 12:11:30;;;;;;;12.00;8.73;;;13.80;4.70;;;;;;4968524;28;20050;-49
2023/04/07 12:13:56;;;;;;;11.90;7.20;;;13.60;2.90;;;;;;4968931;28;20095;-56
2023/04/07 12:16:23;;;;;;;10.82;7.80;;;13.50;4.90;;;;;;4952570;28;20094;-53
2023/04/07 12:18:52;;;;;;;10.07;8.52;;;13.40;2.10;;;;;;4968310;28;20039;-63
2023/04/07 12:21:19;;;;;;;8.60;6.78;;;13.60;2.90;;;;;;4952313;28;20474;-58
2023/04/07 12:23:46;;;;;;;8.43;6.07;;;13.70;1.20;;;;;;4966511;28;20059;-52
2023/04/07 12:26:12;;;;;;;12.50;8.77;;;13.80;1.00;;;;;;4969412;28;20065;-52
2023/04/07 12:28:38;;;;;;;10.63;8.10;;;13.90;1.00;;;;;;4967156;28;20050;-44
2023/04/07 12:31:04;;;;;;;12.65;7.32;;;13.80;1.00;;;;;;4968494;28;20134;-54
2023/04/07 12:33:30;;;;;;;11.70;8.40;;;13.60;1.00;;;;;;4935743;28;20047;-48
2023/04/07 12:35:57;;;;;;;12.23;8.57;;;13.40;1.00;;;;;;4950900;28;20505;-55
2023/04/07 12:38:23;;;;;;;11.52;8.70;;;13.40;1.00;;;;;;4936451;28;20047;-56
2023/04/07 12:40:49;;;;;;;20.08;9.48;;;13.40;1.00;;;;;;4967966;28;20131;-51
2023/04/07 12:43:15;;;;;;;13.05;8.75;;;13.60;1.10;;;;;;4969021;28;20122;-55
2023/04/07 12:45:42;;;;;;;13.48;8.27;;;13.60;2.60;;;;;;4967409;28;20051;-55
2023/04/07 12:48:08;;;;;;;11.30;8.38;;;13.50;1.00;;;;;;4969102;28;20055;-58
2023/04/07 12:50:35;;;;;;;14.27;9.18;;;13.30;1.00;;;;;;4951153;28;20149;-59